createdAt,value
2022-08-17T00:02:25.395Z,39.58
2022-08-17T00:04:54.099Z,39.97
2022-08-17T00:07:21.299Z,41.75
2022-08-17T00:09:47.883Z,40.27
2022-08-17T00:12:43.210Z,40.83
2022-08-17T00:15:01.571Z,43.67
2022-08-17T00:17:28.295Z,42.35
2022-08-17T00:19:55.025Z,43.85
2022-08-17T00:22:32.279Z,44.90
2022-08-17T00:25:03.007Z,43.42
2022-08-17T00:27:29.520Z,45.67
2022-08-17T00:29:56.083Z,44.38
2022-08-17T00:33:10.957Z,49.00
2022-08-17T00:35:12.095Z,46.67
2022-08-17T00:37:38.905Z,46.15
2022-08-17T00:40:06.592Z,46.97
2022-08-17T00:42:33.265Z,45.28
2022-08-17T00:45:00.152Z,44.70
2022-08-17T00:47:26.734Z,47.27
2022-08-17T00:49:54.006Z,45.38
2022-08-17T00:52:27.624Z,47.15
2022-08-17T00:54:55.835Z,47.55
2022-08-17T00:57:35.169Z,45.80
2022-08-17T01:00:11.235Z,44.97
2022-08-17T01:02:43.342Z,47.00
2022-08-17T01:05:16.463Z,45.47
2022-08-17T01:07:46.820Z,46.22
2022-08-17T01:10:57.529Z,48.15
2022-08-17T01:13:02.695Z,47.67
2022-08-17T01:15:31.243Z,49.40
2022-08-17T01:17:58.095Z,46.22
2022-08-17T01:20:25.125Z,47.75
2022-08-17T01:22:52.309Z,47.55
2022-08-17T01:25:20.636Z,45.87
2022-08-17T01:27:49.517Z,46.30
2022-08-17T01:30:58.955Z,50.28
2022-08-17T01:33:04.426Z,48.90
2022-08-17T01:35:31.529Z,52.17
2022-08-17T01:37:58.133Z,49.80
2022-08-17T01:40:31.204Z,52.05
2022-08-17T01:43:03.489Z,53.50
2022-08-17T01:45:33.873Z,52.53
2022-08-17T01:48:01.269Z,53.42
2022-08-17T01:50:31.570Z,54.00
2022-08-17T01:53:26.347Z,56.97
2022-08-17T01:55:57.816Z,52.17
2022-08-17T01:58:24.808Z,52.28
2022-08-17T02:01:01.304Z,51.25
2022-08-17T02:03:29.074Z,50.40
2022-08-17T02:05:56.525Z,48.20
2022-08-17T02:08:38.873Z,43.95
2022-08-17T02:11:15.727Z,42.83
2022-08-17T02:13:44.080Z,39.33
2022-08-17T02:16:10.986Z,40.27
2022-08-17T02:18:37.645Z,38.50
2022-08-17T02:21:04.954Z,36.70
2022-08-17T02:23:35.559Z,38.70
2022-08-17T02:26:02.436Z,40.95
2022-08-17T02:28:29.299Z,44.00
2022-08-17T02:31:01.727Z,43.20
2022-08-17T02:33:41.507Z,43.53
2022-08-17T02:36:12.169Z,43.00
2022-08-17T02:38:40.238Z,44.33
2022-08-17T02:41:07.044Z,45.87
2022-08-17T02:43:33.726Z,45.20
2022-08-17T02:46:00.516Z,47.05
2022-08-17T02:48:31.063Z,47.60
2022-08-17T02:50:58.401Z,49.08
2022-08-17T02:53:25.770Z,53.17
2022-08-17T02:55:53.148Z,50.17
2022-08-17T02:58:34.732Z,54.22
2022-08-17T03:01:07.051Z,51.85
2022-08-17T03:03:34.788Z,48.58
2022-08-17T03:06:01.845Z,46.43
2022-08-17T03:08:28.584Z,44.55
2022-08-17T03:10:55.712Z,43.83
2022-08-17T03:13:22.950Z,42.67
2022-08-17T03:15:50.587Z,42.50
2022-08-17T03:18:24.575Z,42.27
2022-08-17T03:20:54.925Z,43.15
2022-08-17T03:23:24.134Z,39.42
2022-08-17T03:25:53.307Z,36.38
2022-08-17T03:28:21.111Z,35.55
2022-08-17T03:30:47.741Z,38.60
2022-08-17T03:33:14.700Z,35.40
2022-08-17T03:35:42.092Z,36.38
2022-08-17T03:38:12.796Z,35.83
2022-08-17T03:40:56.729Z,34.50
2022-08-17T03:43:25.014Z,31.67
2022-08-17T03:46:27.183Z,32.55
2022-08-17T03:49:14.574Z,32.53
2022-08-17T03:52:00.091Z,32.33
2022-08-17T03:54:45.410Z,32.45
2022-08-17T03:57:12.543Z,31.77
2022-08-17T03:59:40.563Z,33.90
2022-08-17T04:02:11.569Z,35.10
2022-08-17T04:04:39.276Z,35.88
2022-08-17T04:07:06.621Z,38.97
2022-08-17T04:09:33.532Z,38.80
2022-08-17T04:12:01.316Z,39.55
2022-08-17T04:14:39.222Z,38.83
2022-08-17T04:17:21.446Z,42.40
2022-08-17T04:19:47.990Z,40.78
2022-08-17T04:22:30.277Z,42.70
2022-08-17T04:25:09.031Z,41.97
2022-08-17T04:27:36.580Z,45.15
2022-08-17T04:30:07.058Z,45.47
2022-08-17T04:33:02.246Z,46.75
2022-08-17T04:35:36.571Z,47.37
2022-08-17T04:38:03.141Z,45.42
2022-08-17T04:40:48.056Z,43.33
2022-08-17T04:43:18.975Z,43.40
2022-08-17T04:45:56.132Z,40.08
2022-08-17T04:48:36.111Z,39.23
2022-08-17T04:51:09.931Z,39.35
2022-08-17T04:53:38.091Z,40.65
2022-08-17T04:56:04.948Z,41.08
2022-08-17T04:58:31.785Z,40.08
2022-08-17T05:00:58.454Z,40.60
2022-08-17T05:03:25.036Z,39.28
2022-08-17T05:05:51.590Z,42.22
2022-08-17T05:08:20.157Z,41.35
2022-08-17T05:10:48.313Z,40.88
2022-08-17T05:13:17.720Z,41.10
2022-08-17T05:15:47.880Z,44.72
2022-08-17T05:18:15.577Z,41.95
2022-08-17T05:20:42.226Z,40.15
2022-08-17T05:23:12.453Z,41.72
2022-08-17T05:25:48.625Z,39.53
2022-08-17T05:28:18.701Z,40.40
2022-08-17T05:30:50.143Z,41.67
2022-08-17T05:33:20.207Z,41.70
2022-08-17T05:35:49.360Z,44.10
2022-08-17T05:38:18.241Z,44.17
2022-08-17T05:40:45.241Z,45.97
2022-08-17T05:43:11.722Z,44.28
2022-08-17T05:45:55.667Z,45.13
2022-08-17T05:48:35.429Z,43.53
2022-08-17T05:51:21.181Z,41.93
2022-08-17T05:54:12.681Z,42.83
2022-08-17T05:56:56.186Z,40.85
2022-08-17T05:59:34.765Z,41.55
2022-08-17T06:02:19.905Z,39.83
2022-08-17T06:04:46.367Z,42.50
2022-08-17T06:07:34.937Z,40.45
2022-08-17T06:10:29.028Z,40.80
2022-08-17T06:13:26.167Z,39.22
2022-08-17T06:16:33.071Z,38.28
2022-08-17T06:19:06.283Z,37.90
2022-08-17T06:21:39.443Z,37.38
2022-08-17T06:24:34.318Z,37.58
2022-08-17T06:27:36.143Z,35.72
2022-08-17T06:30:09.200Z,38.22
2022-08-17T06:32:48.150Z,37.90
2022-08-17T06:35:19.257Z,38.03
2022-08-17T06:37:55.052Z,34.47
2022-08-17T06:40:45.582Z,35.53
2022-08-17T06:43:29.353Z,35.90
2022-08-17T06:46:11.440Z,33.77
2022-08-17T06:48:47.202Z,31.60
2022-08-17T06:51:33.417Z,30.83
2022-08-17T06:54:09.025Z,27.75
2022-08-17T06:56:53.060Z,25.75
2022-08-17T06:59:36.293Z,25.13
2022-08-17T07:02:29.132Z,22.42
2022-08-17T07:05:13.573Z,19.67
2022-08-17T07:08:04.962Z,20.42
2022-08-17T07:10:36.733Z,20.80
2022-08-17T07:13:20.318Z,19.60
2022-08-17T07:15:56.397Z,18.08
2022-08-17T07:18:26.081Z,16.48
2022-08-17T07:21:02.145Z,16.58
2022-08-17T07:23:44.594Z,15.38
2022-08-17T07:26:13.290Z,15.00
2022-08-17T07:28:39.921Z,16.60
2022-08-17T07:31:07.279Z,17.25
2022-08-17T07:33:36.854Z,17.50
2022-08-17T07:36:03.809Z,17.20
2022-08-17T07:38:32.828Z,17.97
2022-08-17T07:41:05.091Z,19.13
2022-08-17T07:43:39.810Z,18.85
2022-08-17T07:46:33.365Z,19.98
2022-08-17T07:49:08.893Z,21.10
2022-08-17T07:51:45.603Z,21.90
2022-08-17T07:54:15.300Z,22.92
2022-08-17T07:56:56.188Z,21.60
2022-08-17T07:59:24.186Z,24.23
2022-08-17T08:01:57.987Z,23.20
2022-08-17T08:07:21.689Z,35.47
2022-08-17T08:10:11.281Z,35.33
2022-08-17T08:12:42.180Z,28.40
2022-08-17T08:15:21.834Z,25.05
2022-08-17T08:17:56.332Z,36.27
2022-08-17T08:20:53.872Z,25.88
2022-08-17T08:23:26.566Z,20.95
2022-08-17T08:26:30.991Z,22.23
2022-08-17T08:29:12.591Z,22.45
2022-08-17T08:32:07.640Z,23.77
2022-08-17T08:34:58.883Z,25.55
2022-08-17T08:37:43.682Z,34.05
2022-08-17T08:40:33.749Z,28.20
2022-08-17T08:43:22.105Z,23.27
2022-08-17T08:45:57.845Z,24.47
2022-08-17T08:48:56.878Z,25.63
2022-08-17T08:51:34.568Z,32.47
2022-08-17T08:54:31.432Z,26.00
2022-08-17T08:57:23.310Z,27.42
2022-08-17T08:59:58.161Z,23.70
2022-08-17T09:02:40.286Z,25.10
2022-08-17T09:05:39.306Z,24.83
2022-08-17T09:08:46.065Z,23.80
2022-08-17T09:11:12.566Z,23.88
2022-08-17T09:14:29.367Z,23.97
2022-08-17T09:17:21.005Z,23.13
2022-08-17T09:20:27.436Z,23.52
2022-08-17T09:23:04.007Z,25.13
2022-08-17T09:25:34.970Z,25.67
2022-08-17T09:28:17.082Z,27.10
2022-08-17T09:31:02.522Z,25.45
2022-08-17T09:33:31.728Z,25.85
2022-08-17T09:36:11.753Z,27.10
2022-08-17T09:38:44.030Z,27.23
2022-08-17T09:41:33.430Z,27.53
2022-08-17T09:44:22.767Z,25.08
2022-08-17T09:47:00.186Z,28.92
2022-08-17T09:49:40.703Z,28.58
2022-08-17T09:52:13.725Z,26.55
2022-08-17T09:54:41.396Z,26.13
2022-08-17T09:57:30.191Z,26.63
2022-08-17T10:00:13.828Z,27.25
2022-08-17T10:02:53.155Z,26.58
2022-08-17T10:05:41.400Z,26.45
2022-08-17T10:08:17.040Z,25.23
2022-08-17T10:11:07.241Z,27.35
2022-08-17T10:13:59.478Z,26.08
2022-08-17T10:16:55.890Z,25.88
2022-08-17T10:19:28.346Z,28.10
2022-08-17T10:22:35.244Z,27.13
2022-08-17T10:25:27.852Z,27.55
2022-08-17T10:28:19.652Z,27.77
2022-08-17T10:31:10.407Z,25.10
2022-08-17T10:34:09.575Z,24.75
2022-08-17T10:36:48.977Z,23.20
2022-08-17T10:39:30.785Z,23.75
2022-08-17T10:42:03.174Z,23.85
2022-08-17T10:44:48.471Z,25.15
2022-08-17T10:47:18.642Z,25.80
2022-08-17T10:49:49.699Z,25.40
2022-08-17T10:52:28.350Z,26.67
2022-08-17T10:54:58.589Z,24.40
2022-08-17T10:57:31.813Z,23.02
2022-08-17T11:00:00.316Z,22.38
2022-08-17T11:02:50.002Z,18.80
2022-08-17T11:05:28.663Z,20.20
2022-08-17T11:08:23.909Z,20.58
2022-08-17T11:11:12.401Z,18.95
2022-08-17T11:14:08.607Z,17.52
2022-08-17T11:16:51.208Z,17.13
2022-08-17T11:19:41.212Z,16.02
2022-08-17T11:22:16.488Z,14.68
2022-08-17T11:24:47.777Z,14.55
2022-08-17T11:27:27.616Z,15.07
2022-08-17T11:30:01.757Z,14.43
2022-08-17T11:32:54.804Z,15.23
2022-08-17T11:35:21.772Z,13.98
2022-08-17T11:38:30.503Z,14.00
2022-08-17T11:41:15.685Z,12.27
2022-08-17T11:44:11.550Z,11.90
2022-08-17T11:47:15.323Z,11.32
2022-08-17T11:50:29.107Z,11.27
2022-08-17T11:52:55.815Z,11.63
2022-08-17T11:55:41.768Z,10.60
2022-08-17T11:58:39.584Z,11.80
2022-08-17T12:01:07.905Z,11.23
2022-08-17T12:03:34.665Z,11.82
2022-08-17T12:06:19.629Z,11.52
2022-08-17T12:08:56.548Z,12.40
2022-08-17T12:11:57.775Z,12.17
2022-08-17T12:15:08.488Z,13.98
2022-08-17T12:17:39.347Z,14.48
2022-08-17T12:20:34.009Z,15.18
2022-08-17T12:23:06.259Z,15.63
2022-08-17T12:26:05.357Z,16.87
2022-08-17T12:28:36.429Z,17.00
2022-08-17T12:31:06.996Z,17.95
2022-08-17T12:33:36.866Z,16.63
2022-08-17T12:36:07.527Z,15.88
2022-08-17T12:38:37.514Z,18.13
2022-08-17T12:41:26.318Z,17.88
2022-08-17T12:44:02.309Z,16.00
2022-08-17T12:46:44.756Z,16.88
2022-08-17T12:49:35.878Z,15.35
2022-08-17T12:52:05.701Z,15.77
2022-08-17T12:54:44.087Z,14.95
2022-08-17T12:57:34.976Z,15.13
2022-08-17T13:00:32.410Z,15.80
2022-08-17T13:03:02.172Z,14.68
2022-08-17T13:05:36.312Z,13.57
2022-08-17T13:08:23.523Z,14.73
2022-08-17T13:11:01.797Z,14.85
2022-08-17T13:13:34.754Z,15.30
2022-08-17T13:16:05.398Z,15.00
2022-08-17T13:18:36.521Z,15.40
2022-08-17T13:21:03.313Z,14.27
2022-08-17T13:23:32.316Z,14.15
2022-08-17T13:26:05.378Z,14.43
2022-08-17T13:28:36.015Z,13.57
2022-08-17T13:31:28.068Z,14.17
2022-08-17T13:34:13.385Z,13.95
2022-08-17T13:36:43.714Z,13.90
2022-08-17T13:39:21.672Z,15.15
2022-08-17T13:41:53.853Z,16.77
2022-08-17T13:44:30.887Z,15.73
2022-08-17T13:46:59.824Z,16.92
2022-08-17T13:49:40.983Z,16.35
2022-08-17T13:52:37.988Z,17.25
2022-08-17T13:55:15.745Z,17.70
2022-08-17T13:57:47.003Z,18.07
2022-08-17T14:00:30.852Z,17.27
2022-08-17T14:02:58.527Z,17.60
2022-08-17T14:05:25.778Z,18.85
2022-08-17T14:07:58.719Z,17.13
2022-08-17T14:10:26.369Z,17.97
2022-08-17T14:12:53.460Z,18.63
2022-08-17T14:15:55.024Z,18.75
2022-08-17T14:18:12.212Z,19.95
2022-08-17T14:20:39.893Z,18.25
2022-08-17T14:23:08.396Z,19.63
2022-08-17T14:25:35.060Z,19.55
2022-08-17T14:28:01.940Z,19.95
2022-08-17T14:30:49.997Z,17.77
2022-08-17T14:33:25.546Z,18.77
2022-08-17T14:36:16.421Z,19.90
2022-08-17T14:38:43.033Z,18.95
2022-08-17T14:41:09.595Z,19.55
2022-08-17T14:43:36.460Z,19.65
2022-08-17T14:46:03.129Z,21.67
2022-08-17T14:48:29.717Z,22.83
2022-08-17T14:50:56.737Z,21.20
2022-08-17T14:53:23.427Z,21.58
2022-08-17T14:55:51.804Z,21.80
2022-08-17T14:58:19.940Z,22.83
2022-08-17T15:00:46.846Z,21.33
2022-08-17T15:03:14.564Z,22.02
2022-08-17T15:05:44.274Z,22.73
2022-08-17T15:08:11.220Z,20.83
2022-08-17T15:10:39.168Z,20.33
2022-08-17T15:13:17.070Z,18.30
2022-08-17T15:15:43.800Z,16.75
2022-08-17T15:18:10.346Z,15.65
2022-08-17T15:20:36.881Z,16.38
2022-08-17T15:23:03.444Z,17.45
2022-08-17T15:25:32.463Z,17.40
2022-08-17T15:28:00.556Z,17.88
2022-08-17T15:30:28.434Z,17.85
2022-08-17T15:32:57.768Z,19.02
2022-08-17T15:35:27.369Z,18.92
2022-08-17T15:37:55.983Z,18.10
2022-08-17T15:40:22.497Z,17.88
2022-08-17T15:42:49.042Z,19.20
2022-08-17T15:45:16.907Z,20.02
2022-08-17T15:47:43.611Z,20.60
2022-08-17T15:50:10.665Z,18.27
2022-08-17T15:52:40.240Z,20.80
2022-08-17T15:55:10.720Z,19.75
2022-08-17T15:57:37.316Z,20.70
2022-08-17T16:00:05.827Z,20.58
2022-08-17T16:03:45.668Z,19.77
2022-08-17T16:05:24.786Z,20.70
2022-08-17T16:07:52.417Z,19.50
2022-08-17T16:10:19.630Z,21.10
2022-08-17T16:12:47.949Z,20.23
2022-08-17T16:15:16.236Z,20.87
2022-08-17T16:17:43.073Z,20.23
2022-08-17T16:20:19.771Z,23.27
2022-08-17T16:22:48.912Z,21.63
2022-08-17T16:25:19.521Z,21.67
2022-08-17T16:27:48.275Z,21.30
2022-08-17T16:30:17.671Z,22.90
2022-08-17T16:32:45.384Z,22.30
2022-08-17T16:35:16.184Z,21.30
2022-08-17T16:37:45.435Z,21.50
2022-08-17T16:40:13.209Z,21.70
2022-08-17T16:42:40.210Z,23.08
2022-08-17T16:45:14.607Z,22.67
2022-08-17T16:47:41.981Z,22.15
2022-08-17T16:50:11.750Z,22.85
2022-08-17T16:52:40.535Z,22.00
2022-08-17T16:55:09.267Z,22.25
2022-08-17T16:57:47.412Z,21.67
2022-08-17T17:00:18.240Z,21.73
2022-08-17T17:02:47.671Z,21.27
2022-08-17T17:05:29.256Z,20.33
2022-08-17T17:08:18.347Z,22.48
2022-08-17T17:10:47.360Z,21.08
2022-08-17T17:13:38.953Z,21.85
2022-08-17T17:16:20.848Z,22.00
2022-08-17T17:19:15.011Z,22.40
2022-08-17T17:21:59.990Z,22.00
2022-08-17T17:24:41.039Z,21.48
2022-08-17T17:27:17.408Z,20.95
2022-08-17T17:30:08.180Z,22.48
2022-08-17T17:32:44.638Z,22.33
2022-08-17T17:35:18.899Z,23.30
2022-08-17T17:37:46.877Z,22.98
2022-08-17T17:40:28.716Z,22.45
2022-08-17T17:43:09.455Z,24.05
2022-08-17T17:45:53.035Z,23.20
2022-08-17T17:48:19.681Z,23.55
2022-08-17T17:51:05.537Z,23.05
2022-08-17T17:53:48.385Z,23.83
2022-08-17T17:56:45.057Z,25.40
2022-08-17T17:59:27.090Z,24.93
2022-08-17T18:02:08.804Z,24.52
2022-08-17T18:04:59.088Z,24.90
2022-08-17T18:07:42.412Z,23.35
2022-08-17T18:10:29.541Z,23.58
2022-08-17T18:13:15.667Z,24.53
2022-08-17T18:15:51.361Z,24.08
2022-08-17T18:18:17.957Z,24.52
2022-08-17T18:20:55.812Z,24.77
2022-08-17T18:23:27.627Z,25.08
2022-08-17T18:25:56.235Z,25.53
2022-08-17T18:28:44.037Z,24.80
2022-08-17T18:31:20.987Z,25.13
2022-08-17T18:33:50.772Z,24.08
2022-08-17T18:36:30.267Z,23.70
2022-08-17T18:39:21.243Z,21.27
2022-08-17T18:41:53.558Z,22.25
2022-08-17T18:44:32.784Z,20.23
2022-08-17T18:47:19.499Z,20.50
2022-08-17T18:49:51.881Z,21.95
2022-08-17T18:52:34.150Z,21.80
2022-08-17T18:55:08.880Z,22.38
2022-08-17T18:57:39.444Z,22.25
2022-08-17T19:00:35.901Z,22.55
2022-08-17T19:03:18.580Z,20.13
2022-08-17T19:05:50.578Z,20.53
2022-08-17T19:08:29.174Z,21.65
2022-08-17T19:11:05.601Z,21.70
2022-08-17T19:13:38.682Z,22.25
2022-08-17T19:16:14.856Z,23.13
2022-08-17T19:18:58.699Z,23.02
2022-08-17T19:21:30.852Z,24.27
2022-08-17T19:24:13.796Z,23.75
2022-08-17T19:26:51.067Z,24.05
2022-08-17T19:29:48.041Z,23.23
2022-08-17T19:32:19.507Z,22.73
2022-08-17T19:34:46.280Z,22.67
2022-08-17T19:37:39.402Z,26.00
2022-08-17T19:40:51.216Z,24.63
2022-08-17T19:43:28.730Z,24.40
2022-08-17T19:46:11.522Z,25.00
2022-08-17T19:49:12.242Z,25.80
2022-08-17T19:51:48.827Z,24.70
2022-08-17T19:54:20.520Z,26.25
2022-08-17T19:57:16.020Z,24.50
2022-08-17T19:59:49.344Z,25.13
2022-08-17T20:02:35.702Z,24.80
2022-08-17T20:05:08.577Z,24.17
2022-08-17T20:07:53.384Z,24.80
2022-08-17T20:10:53.611Z,26.50
2022-08-17T20:13:33.271Z,29.88
2022-08-17T20:16:01.192Z,33.15
2022-08-17T20:18:37.686Z,31.17
2022-08-17T20:21:20.290Z,34.22
2022-08-17T20:23:59.537Z,33.90
2022-08-17T20:26:49.114Z,36.50
2022-08-17T20:29:36.991Z,34.20
2022-08-17T20:32:16.890Z,33.03
2022-08-17T20:34:47.201Z,33.05
2022-08-17T20:37:13.647Z,35.87
2022-08-17T20:40:05.393Z,35.30
2022-08-17T20:42:33.875Z,33.33
2022-08-17T20:45:21.840Z,30.60
2022-08-17T20:48:18.668Z,29.38
2022-08-17T20:50:45.232Z,31.73
2022-08-17T20:53:32.389Z,36.50
2022-08-17T20:55:58.963Z,40.47
2022-08-17T20:58:30.931Z,39.33
2022-08-17T21:00:57.935Z,40.72
2022-08-17T21:03:24.512Z,39.63
2022-08-17T21:06:16.905Z,43.93
2022-08-17T21:09:28.572Z,42.15
2022-08-17T21:12:04.980Z,41.05
2022-08-17T21:14:40.869Z,38.30
2022-08-17T21:17:31.118Z,37.97
2022-08-17T21:20:14.794Z,35.77
2022-08-17T21:23:16.518Z,38.22
2022-08-17T21:26:09.228Z,41.00
2022-08-17T21:29:29.893Z,43.33
2022-08-17T21:31:59.453Z,42.85
2022-08-17T21:34:44.970Z,43.17
2022-08-17T21:37:23.661Z,43.80
2022-08-17T21:40:24.490Z,42.47
2022-08-17T21:42:59.289Z,43.70
2022-08-17T21:45:30.880Z,46.17
2022-08-17T21:48:15.086Z,45.93
2022-08-17T21:50:45.782Z,44.47
2022-08-17T21:53:22.836Z,43.83
2022-08-17T21:55:50.337Z,42.40
2022-08-17T21:58:35.163Z,40.60
2022-08-17T22:01:21.051Z,43.50
2022-08-17T22:03:56.420Z,43.05
2022-08-17T22:06:25.014Z,44.45
2022-08-17T22:09:05.925Z,48.33
2022-08-17T22:11:57.549Z,46.05
2022-08-17T22:15:00.857Z,46.03
2022-08-17T22:17:27.345Z,44.35
2022-08-17T22:19:58.955Z,45.30
2022-08-17T22:22:27.896Z,42.45
2022-08-17T22:24:57.776Z,42.35
2022-08-17T22:27:45.864Z,43.53
2022-08-17T22:30:27.539Z,41.67
2022-08-17T22:32:54.230Z,39.58
2022-08-17T22:35:37.392Z,38.05
2022-08-17T22:38:19.347Z,38.38
2022-08-17T22:40:55.088Z,39.27
2022-08-17T22:43:26.385Z,38.03
2022-08-17T22:45:57.280Z,38.40
2022-08-17T22:48:28.926Z,39.00
2022-08-17T22:51:14.222Z,31.88
2022-08-17T22:54:08.700Z,27.47
2022-08-17T22:56:54.815Z,26.27
2022-08-17T22:59:44.294Z,28.98
2022-08-17T23:02:19.615Z,26.67
2022-08-17T23:05:07.236Z,30.42
2022-08-17T23:07:33.739Z,36.37
2022-08-17T23:10:02.168Z,36.22
2022-08-17T23:12:29.221Z,33.50
2022-08-17T23:15:01.237Z,29.95
2022-08-17T23:17:35.131Z,31.08
2022-08-17T23:20:09.104Z,28.80
2022-08-17T23:22:38.164Z,29.67
2022-08-17T23:25:29.422Z,31.35
2022-08-17T23:27:58.374Z,31.30
2022-08-17T23:30:25.685Z,33.55
2022-08-17T23:32:54.189Z,38.07
2022-08-17T23:35:40.279Z,40.40
2022-08-17T23:38:11.694Z,40.47
2022-08-17T23:40:39.832Z,40.65
2022-08-17T23:43:23.720Z,38.22
2022-08-17T23:45:57.544Z,37.27
2022-08-17T23:48:32.483Z,37.13
2022-08-17T23:51:14.862Z,37.35
2022-08-17T23:53:46.309Z,37.75
2022-08-17T23:56:12.944Z,39.03
2022-08-17T23:58:42.418Z,38.60
